Time,TemperatureF,DewpointF,PressureIn,WindDirection,WindDirectionDegrees,WindSpeedMPH,WindSpeedGustMPH,Humidity,HourlyPrecipIn,Conditions,Clouds,dailyrainin,SoftwareType,DateUTC
2013-07-23 00:03:00,63.7,63.0,29.85,West,273,8.0,-999.0,97,-99.99,,,0.00,weatherlink.com 1.10,2013-07-23 04:03:00,
2013-07-23 00:18:00,63.4,63.0,29.86,West,278,7.0,-999.0,98,-99.99,,,0.00,weatherlink.com 1.10,2013-07-23 04:18:00,
2013-07-23 00:33:00,63.3,63.0,29.85,West,275,10.0,-999.0,98,-99.99,,,0.00,weatherlink.com 1.10,2013-07-23 04:33:00,
2013-07-23 00:48:00,63.2,62.0,29.85,WNW,297,12.0,-999.0,97,-99.99,,,0.00,weatherlink.com 1.10,2013-07-23 04:48:00,
2013-07-23 01:03:00,63.2,62.0,29.85,NW,304,14.0,-999.0,97,-99.99,,,0.00,weatherlink.com 1.10,2013-07-23 05:03:00,
2013-07-23 01:18:00,63.1,62.0,29.84,West,267,10.0,-999.0,97,-99.99,,,0.00,weatherlink.com 1.10,2013-07-23 05:18:00,
2013-07-23 01:33:00,62.9,62.0,29.84,West,277,11.0,-999.0,97,-99.99,,,0.00,weatherlink.com 1.10,2013-07-23 05:33:00,
2013-07-23 01:48:00,62.9,62.0,29.83,NW,311,6.0,-999.0,97,-99.99,,,0.00,weatherlink.com 1.10,2013-07-23 05:48:00,
2013-07-23 02:03:00,62.9,62.0,29.82,WNW,295,11.0,-999.0,97,-99.99,,,0.00,weatherlink.com 1.10,2013-07-23 06:03:00,
2013-07-23 02:18:00,62.9,62.0,29.81,West,273,12.0,-999.0,97,-99.99,,,0.00,weatherlink.com 1.10,2013-07-23 06:18:00,
2013-07-23 02:33:00,63.0,62.0,29.81,West,279,11.0,-999.0,97,-99.99,,,0.00,weatherlink.com 1.10,2013-07-23 06:33:00,
2013-07-23 02:48:00,63.0,62.0,29.81,WNW,294,10.0,-999.0,97,-99.99,,,0.00,weatherlink.com 1.10,2013-07-23 06:48:00,
2013-07-23 03:03:00,62.9,62.0,29.80,NNE,14,7.0,-999.0,98,-99.99,,,0.00,weatherlink.com 1.10,2013-07-23 07:03:00,
2013-07-23 03:18:00,63.0,62.0,29.80,NW,313,5.0,-999.0,97,-99.99,,,0.00,weatherlink.com 1.10,2013-07-23 07:18:00,
2013-07-23 03:33:00,63.1,62.0,29.79,West,272,16.0,-999.0,96,-99.99,,,0.00,weatherlink.com 1.10,2013-07-23 07:33:00,
2013-07-23 03:48:00,63.1,62.0,29.79,WNW,301,13.0,-999.0,97,-99.99,,,0.00,weatherlink.com 1.10,2013-07-23 07:48:00,
2013-07-23 04:03:00,63.1,62.0,29.79,WNW,299,13.0,-999.0,97,-99.99,,,0.00,weatherlink.com 1.10,2013-07-23 08:03:00,
2013-07-23 04:18:00,63.2,62.0,29.79,NW,321,26.0,-999.0,97,-99.99,,,0.00,weatherlink.com 1.10,2013-07-23 08:18:00,
2013-07-23 04:33:00,63.1,62.0,29.80,WNW,288,14.0,-999.0,97,-99.99,,,0.00,weatherlink.com 1.10,2013-07-23 08:33:00,
2013-07-23 04:48:00,63.2,62.0,29.80,WNW,284,15.0,-999.0,96,-99.99,,,0.00,weatherlink.com 1.10,2013-07-23 08:48:00,
2013-07-23 05:03:00,62.9,62.0,29.81,West,271,11.0,-999.0,96,-99.99,,,0.00,weatherlink.com 1.10,2013-07-23 09:03:00,
2013-07-23 05:18:00,63.1,62.0,29.81,WNW,290,8.0,-999.0,96,-99.99,,,0.00,weatherlink.com 1.10,2013-07-23 09:18:00,
2013-07-23 05:33:00,63.2,62.0,29.81,NW,317,9.0,-999.0,96,-99.99,,,0.00,weatherlink.com 1.10,2013-07-23 09:33:00,
2013-07-23 05:48:00,63.1,62.0,29.82,WNW,298,16.0,-999.0,96,-99.99,,,0.00,weatherlink.com 1.10,2013-07-23 09:48:00,
2013-07-23 06:03:00,63.0,62.0,29.82,West,281,9.0,-999.0,95,-99.99,,,0.00,weatherlink.com 1.10,2013-07-23 10:03:00,
2013-07-23 06:18:00,63.0,62.0,29.83,North,5,7.0,-999.0,95,-99.99,,,0.00,weatherlink.com 1.10,2013-07-23 10:18:00,
2013-07-23 06:33:00,62.8,62.0,29.82,WNW,290,8.0,-999.0,96,-99.99,,,0.00,weatherlink.com 1.10,2013-07-23 10:33:00,
2013-07-23 06:48:00,62.9,62.0,29.83,WNW,300,11.0,-999.0,96,-99.99,,,0.00,weatherlink.com 1.10,2013-07-23 10:48:00,
2013-07-23 07:03:00,63.2,62.0,29.83,West,259,12.0,-999.0,96,-99.99,,,0.00,weatherlink.com 1.10,2013-07-23 11:03:00,
2013-07-23 07:18:00,63.6,62.0,29.84,NNW,331,11.0,-999.0,95,-99.99,,,0.00,weatherlink.com 1.10,2013-07-23 11:18:00,
2013-07-23 07:33:00,63.6,62.0,29.84,WNW,285,11.0,-999.0,94,-99.99,,,0.00,weatherlink.com 1.10,2013-07-23 11:33:00,
2013-07-23 07:48:00,63.5,62.0,29.83,WNW,300,13.0,-999.0,95,-99.99,,,0.00,weatherlink.com 1.10,2013-07-23 11:48:00,
2013-07-23 08:03:00,63.4,62.0,29.84,WNW,289,13.0,-999.0,95,-99.99,,,0.00,weatherlink.com 1.10,2013-07-23 12:03:00,
2013-07-23 08:18:00,63.4,62.0,29.84,ENE,60,5.0,-999.0,95,-99.99,,,0.00,weatherlink.com 1.10,2013-07-23 12:18:00,
2013-07-23 08:33:00,63.2,62.0,29.84,NW,313,8.0,-999.0,95,-99.99,,,0.00,weatherlink.com 1.10,2013-07-23 12:33:00,
2013-07-23 08:48:00,63.1,62.0,29.85,NW,319,15.0,-999.0,95,-99.99,,,0.00,weatherlink.com 1.10,2013-07-23 12:48:00,
2013-07-23 09:03:00,63.1,62.0,29.84,WNW,286,13.0,-999.0,95,-99.99,,,0.00,weatherlink.com 1.10,2013-07-23 13:03:00,
2013-07-23 09:18:00,63.3,62.0,29.85,NW,317,6.0,-999.0,95,-99.99,,,0.00,weatherlink.com 1.10,2013-07-23 13:18:00,
2013-07-23 09:33:00,63.5,62.0,29.85,WNW,294,8.0,-999.0,95,-99.99,,,0.00,weatherlink.com 1.10,2013-07-23 13:33:00,
2013-07-23 09:48:00,63.5,62.0,29.85,West,273,14.0,-999.0,94,-99.99,,,0.00,weatherlink.com 1.10,2013-07-23 13:48:00,
2013-07-23 10:03:00,63.5,62.0,29.85,NW,315,5.0,-999.0,94,-99.99,,,0.00,weatherlink.com 1.10,2013-07-23 14:03:00,
2013-07-23 10:18:00,63.9,62.0,29.86,NW,306,12.0,-999.0,94,-99.99,,,0.00,weatherlink.com 1.10,2013-07-23 14:18:00,
2013-07-23 10:33:00,64.4,62.0,29.87,NNW,331,8.0,-999.0,92,-99.99,,,0.00,weatherlink.com 1.10,2013-07-23 14:33:00,
2013-07-23 10:48:00,64.6,62.0,29.87,WNW,296,11.0,-999.0,91,-99.99,,,0.00,weatherlink.com 1.10,2013-07-23 14:48:00,
2013-07-23 11:03:00,65.3,62.0,29.87,NW,309,15.0,-999.0,90,-99.99,,,0.00,weatherlink.com 1.10,2013-07-23 15:03:00,
2013-07-23 11:18:00,66.6,63.0,29.87,WNW,288,7.0,-999.0,88,-99.99,,,0.00,weatherlink.com 1.10,2013-07-23 15:18:00,
2013-07-23 11:33:00,67.3,63.0,29.88,NW,320,4.0,-999.0,87,-99.99,,,0.00,weatherlink.com 1.10,2013-07-23 15:33:00,
2013-07-23 11:48:00,66.5,63.0,29.88,NW,319,6.0,-999.0,88,-99.99,,,0.00,weatherlink.com 1.10,2013-07-23 15:48:00,
2013-07-23 12:03:00,67.5,63.0,29.89,WNW,288,5.0,-999.0,85,-99.99,,,0.00,weatherlink.com 1.10,2013-07-23 16:03:00,
2013-07-23 12:18:00,68.7,64.0,29.89,West,261,11.0,-999.0,84,-99.99,,,0.00,weatherlink.com 1.10,2013-07-23 16:18:00,
2013-07-23 12:33:00,67.6,64.0,29.89,West,267,9.0,-999.0,88,-99.99,,,0.00,weatherlink.com 1.10,2013-07-23 16:33:00,
2013-07-23 12:48:00,68.8,62.0,29.89,NW,318,4.0,-999.0,80,-99.99,,,0.00,weatherlink.com 1.10,2013-07-23 16:48:00,
2013-07-23 13:03:00,70.2,63.0,29.89,NW,308,9.0,-999.0,79,-99.99,,,0.00,weatherlink.com 1.10,2013-07-23 17:03:00,
2013-07-23 13:18:00,70.2,63.0,29.89,WNW,297,8.0,-999.0,78,-99.99,,,0.00,weatherlink.com 1.10,2013-07-23 17:18:00,
2013-07-23 13:33:00,70.4,62.0,29.88,WNW,292,12.0,-999.0,75,-99.99,,,0.00,weatherlink.com 1.10,2013-07-23 17:33:00,
2013-07-23 13:48:00,69.9,64.0,29.88,West,269,6.0,-999.0,80,-99.99,,,0.00,weatherlink.com 1.10,2013-07-23 17:48:00,
2013-07-23 14:03:00,70.0,63.0,29.88,West,261,6.0,-999.0,79,-99.99,,,0.00,weatherlink.com 1.10,2013-07-23 18:03:00,
2013-07-23 14:18:00,70.0,61.0,29.86,West,279,7.0,-999.0,74,-99.99,,,0.00,weatherlink.com 1.10,2013-07-23 18:18:00,
2013-07-23 14:48:00,71.3,62.0,29.86,NNW,331,14.0,-999.0,73,-99.99,,,0.00,weatherlink.com 1.10,2013-07-23 18:48:00,
2013-07-23 15:03:00,71.7,61.0,29.86,NNW,333,9.0,-999.0,70,-99.99,,,0.00,weatherlink.com 1.10,2013-07-23 19:03:00,
2013-07-23 15:18:00,71.3,62.0,29.85,NW,325,7.0,-999.0,72,-99.99,,,0.00,weatherlink.com 1.10,2013-07-23 19:18:00,
2013-07-23 15:33:00,71.7,62.0,29.85,North,355,7.0,-999.0,71,-99.99,,,0.00,weatherlink.com 1.10,2013-07-23 19:33:00,
2013-07-23 15:48:00,71.9,62.0,29.85,NW,319,12.0,-999.0,71,-99.99,,,0.00,weatherlink.com 1.10,2013-07-23 19:48:00,
2013-07-23 16:03:00,72.3,61.0,29.84,West,268,8.0,-999.0,67,-99.99,,,0.00,weatherlink.com 1.10,2013-07-23 20:03:00,
2013-07-23 16:18:00,72.8,62.0,29.84,NNW,328,9.0,-999.0,68,-99.99,,,0.00,weatherlink.com 1.10,2013-07-23 20:18:00,
2013-07-23 16:48:00,72.6,61.0,29.82,NW,322,12.0,-999.0,66,-99.99,,,0.00,weatherlink.com 1.10,2013-07-23 20:48:00,
2013-07-23 17:03:00,72.8,60.0,29.82,NW,309,8.0,-999.0,65,-99.99,,,0.00,weatherlink.com 1.10,2013-07-23 21:03:00,
2013-07-23 17:18:00,72.6,60.0,29.82,NW,317,12.0,-999.0,64,-99.99,,,0.00,weatherlink.com 1.10,2013-07-23 21:18:00,
2013-07-23 17:33:00,72.7,61.0,29.82,WSW,257,8.0,-999.0,66,-99.99,,,0.00,weatherlink.com 1.10,2013-07-23 21:33:00,
2013-07-23 18:03:00,72.1,61.0,29.81,WNW,299,13.0,-999.0,67,-99.99,,,0.00,weatherlink.com 1.10,2013-07-23 22:03:00,
2013-07-23 18:18:00,71.8,61.0,29.81,West,261,11.0,-999.0,69,-99.99,,,0.00,weatherlink.com 1.10,2013-07-23 22:18:00,
2013-07-23 18:33:00,70.8,62.0,29.80,West,267,7.0,-999.0,73,-99.99,,,0.00,weatherlink.com 1.10,2013-07-23 22:33:00,
2013-07-23 18:48:00,70.2,62.0,29.81,WNW,302,7.0,-999.0,75,-99.99,,,0.00,weatherlink.com 1.10,2013-07-23 22:48:00,
2013-07-23 19:03:00,70.6,63.0,29.81,West,267,6.0,-999.0,76,-99.99,,,0.00,weatherlink.com 1.10,2013-07-23 23:03:00,
2013-07-23 19:18:00,70.4,63.0,29.82,WNW,294,0.0,-999.0,78,-99.99,,,0.00,weatherlink.com 1.10,2013-07-23 23:18:00,
2013-07-23 19:48:00,69.4,63.0,29.82,West,277,4.0,-999.0,80,-99.99,,,0.00,weatherlink.com 1.10,2013-07-23 23:48:00,
2013-07-23 20:03:00,69.1,64.0,29.82,WNW,303,5.0,-999.0,83,-99.99,,,0.00,weatherlink.com 1.10,2013-07-24 00:03:00,
2013-07-23 20:18:00,68.7,64.0,29.81,NW,317,2.0,-999.0,84,-99.99,,,0.00,weatherlink.com 1.10,2013-07-24 00:18:00,
2013-07-23 20:48:00,67.8,63.0,29.81,NNW,339,3.0,-999.0,85,-99.99,,,0.00,weatherlink.com 1.10,2013-07-24 00:48:00,
2013-07-23 21:03:00,67.4,64.0,29.81,NNW,346,1.0,-999.0,87,-99.99,,,0.00,weatherlink.com 1.10,2013-07-24 01:03:00,
2013-07-23 21:48:00,66.7,64.0,29.83,NW,309,7.0,-999.0,90,-99.99,,,0.00,weatherlink.com 1.10,2013-07-24 01:48:00,
2013-07-23 22:03:00,66.5,64.0,29.84,NW,320,6.0,-999.0,90,-99.99,,,0.00,weatherlink.com 1.10,2013-07-24 02:03:00,
2013-07-23 22:18:00,66.7,63.0,29.84,West,263,1.0,-999.0,88,-99.99,,,0.00,weatherlink.com 1.10,2013-07-24 02:18:00,
2013-07-23 22:33:00,66.2,63.0,29.85,West,274,5.0,-999.0,89,-99.99,,,0.00,weatherlink.com 1.10,2013-07-24 02:33:00,
2013-07-23 22:48:00,66.2,63.0,29.85,WNW,300,3.0,-999.0,90,-99.99,,,0.00,weatherlink.com 1.10,2013-07-24 02:48:00,
2013-07-23 23:03:00,66.6,63.0,29.85,WNW,303,4.0,-999.0,89,-99.99,,,0.00,weatherlink.com 1.10,2013-07-24 03:03:00,
2013-07-23 23:18:00,66.6,64.0,29.84,West,274,7.0,-999.0,90,-99.99,,,0.00,weatherlink.com 1.10,2013-07-24 03:18:00,
2013-07-23 23:33:00,66.2,63.0,29.84,WNW,295,5.0,-999.0,90,-99.99,,,0.00,weatherlink.com 1.10,2013-07-24 03:33:00,
2013-07-23 23:48:00,65.5,63.0,29.84,WNW,288,4.0,-999.0,92,-99.99,,,0.00,weatherlink.com 1.10,2013-07-24 03:48:00,